sensor_id;sensor_type;location;lat;lon;timestamp;P1;durP1;ratioP1;P2;durP2;ratioP2
8859;SDS011;4466;50.948;4.832;2023-11-21T00:00:14;39.13;;;25.97;;
8859;SDS011;4466;50.948;4.832;2023-11-21T00:02:40;37.53;;;25.07;;
8859;SDS011;4466;50.948;4.832;2023-11-21T00:05:07;36.13;;;25.30;;
8859;SDS011;4466;50.948;4.832;2023-11-21T00:07:34;40.20;;;24.57;;
8859;SDS011;4466;50.948;4.832;2023-11-21T00:10:01;36.63;;;25.17;;
8859;SDS011;4466;50.948;4.832;2023-11-21T00:12:27;40.70;;;26.47;;
8859;SDS011;4466;50.948;4.832;2023-11-21T00:14:54;39.27;;;25.67;;
8859;SDS011;4466;50.948;4.832;2023-11-21T00:17:21;37.23;;;26.00;;
8859;SDS011;4466;50.948;4.832;2023-11-21T00:19:46;36.17;;;26.07;;
8859;SDS011;4466;50.948;4.832;2023-11-21T00:22:12;38.93;;;27.67;;
8859;SDS011;4466;50.948;4.832;2023-11-21T00:24:38;37.13;;;26.90;;
8859;SDS011;4466;50.948;4.832;2023-11-21T00:27:03;41.23;;;28.57;;
8859;SDS011;4466;50.948;4.832;2023-11-21T00:29:29;46.00;;;28.37;;
8859;SDS011;4466;50.948;4.832;2023-11-21T00:31:55;43.20;;;28.33;;
8859;SDS011;4466;50.948;4.832;2023-11-21T00:34:20;43.63;;;27.53;;
8859;SDS011;4466;50.948;4.832;2023-11-21T00:36:46;41.63;;;27.77;;
8859;SDS011;4466;50.948;4.832;2023-11-21T00:39:12;44.20;;;28.50;;
8859;SDS011;4466;50.948;4.832;2023-11-21T00:41:38;45.93;;;28.87;;
8859;SDS011;4466;50.948;4.832;2023-11-21T00:44:04;43.70;;;28.13;;
8859;SDS011;4466;50.948;4.832;2023-11-21T00:46:29;46.73;;;28.23;;
8859;SDS011;4466;50.948;4.832;2023-11-21T00:48:55;48.87;;;30.67;;
8859;SDS011;4466;50.948;4.832;2023-11-21T00:51:21;52.50;;;30.87;;
8859;SDS011;4466;50.948;4.832;2023-11-21T00:53:47;45.63;;;29.10;;
8859;SDS011;4466;50.948;4.832;2023-11-21T00:56:13;40.23;;;28.63;;
8859;SDS011;4466;50.948;4.832;2023-11-21T00:58:40;44.27;;;28.30;;
8859;SDS011;4466;50.948;4.832;2023-11-21T01:01:11;44.57;;;28.70;;
8859;SDS011;4466;50.948;4.832;2023-11-21T01:03:37;43.37;;;27.80;;
8859;SDS011;4466;50.948;4.832;2023-11-21T01:06:03;44.87;;;27.30;;
8859;SDS011;4466;50.948;4.832;2023-11-21T01:08:32;46.03;;;28.97;;
8859;SDS011;4466;50.948;4.832;2023-11-21T01:10:57;48.33;;;30.07;;
8859;SDS011;4466;50.948;4.832;2023-11-21T01:13:23;43.50;;;27.67;;
8859;SDS011;4466;50.948;4.832;2023-11-21T01:15:54;44.97;;;27.53;;
8859;SDS011;4466;50.948;4.832;2023-11-21T01:18:20;48.77;;;29.07;;
8859;SDS011;4466;50.948;4.832;2023-11-21T01:20:46;52.90;;;28.17;;
8859;SDS011;4466;50.948;4.832;2023-11-21T01:23:12;46.70;;;26.47;;
8859;SDS011;4466;50.948;4.832;2023-11-21T01:25:38;41.83;;;25.73;;
8859;SDS011;4466;50.948;4.832;2023-11-21T01:28:04;89.00;;;24.47;;
8859;SDS011;4466;50.948;4.832;2023-11-21T01:30:30;75.47;;;23.30;;
8859;SDS011;4466;50.948;4.832;2023-11-21T01:32:57;38.67;;;22.77;;
8859;SDS011;4466;50.948;4.832;2023-11-21T01:35:23;93.23;;;25.57;;
8859;SDS011;4466;50.948;4.832;2023-11-21T01:37:49;116.07;;;27.03;;
8859;SDS011;4466;50.948;4.832;2023-11-21T01:40:15;34.90;;;23.27;;
8859;SDS011;4466;50.948;4.832;2023-11-21T01:42:41;33.90;;;23.17;;
8859;SDS011;4466;50.948;4.832;2023-11-21T01:45:09;36.50;;;23.87;;
8859;SDS011;4466;50.948;4.832;2023-11-21T01:47:35;36.07;;;23.97;;
8859;SDS011;4466;50.948;4.832;2023-11-21T01:50:02;27.53;;;17.73;;
8859;SDS011;4466;50.948;4.832;2023-11-21T01:52:31;29.80;;;18.10;;
8859;SDS011;4466;50.948;4.832;2023-11-21T01:54:58;31.97;;;19.37;;
8859;SDS011;4466;50.948;4.832;2023-11-21T01:57:25;34.47;;;20.17;;
8859;SDS011;4466;50.948;4.832;2023-11-21T01:59:51;45.40;;;21.07;;
8859;SDS011;4466;50.948;4.832;2023-11-21T02:02:19;61.40;;;21.87;;
8859;SDS011;4466;50.948;4.832;2023-11-21T02:04:44;58.70;;;21.60;;
8859;SDS011;4466;50.948;4.832;2023-11-21T02:07:10;72.23;;;24.90;;
8859;SDS011;4466;50.948;4.832;2023-11-21T02:09:36;60.40;;;22.10;;
8859;SDS011;4466;50.948;4.832;2023-11-21T02:12:07;68.67;;;23.70;;
8859;SDS011;4466;50.948;4.832;2023-11-21T02:14:35;73.37;;;23.77;;
8859;SDS011;4466;50.948;4.832;2023-11-21T02:17:01;85.60;;;24.10;;
8859;SDS011;4466;50.948;4.832;2023-11-21T02:19:28;158.53;;;28.40;;
8859;SDS011;4466;50.948;4.832;2023-11-21T02:21:56;44.50;;;24.40;;
8859;SDS011;4466;50.948;4.832;2023-11-21T02:24:25;163.00;;;27.33;;
8859;SDS011;4466;50.948;4.832;2023-11-21T02:26:52;102.93;;;26.23;;
8859;SDS011;4466;50.948;4.832;2023-11-21T02:29:21;105.17;;;25.47;;
8859;SDS011;4466;50.948;4.832;2023-11-21T02:31:47;97.23;;;24.77;;
8859;SDS011;4466;50.948;4.832;2023-11-21T02:34:17;109.97;;;26.47;;
8859;SDS011;4466;50.948;4.832;2023-11-21T02:36:46;74.97;;;24.03;;
8859;SDS011;4466;50.948;4.832;2023-11-21T02:39:14;60.67;;;24.43;;
8859;SDS011;4466;50.948;4.832;2023-11-21T02:41:41;79.80;;;25.03;;
8859;SDS011;4466;50.948;4.832;2023-11-21T02:44:07;68.53;;;24.03;;
8859;SDS011;4466;50.948;4.832;2023-11-21T02:46:33;46.87;;;22.17;;
8859;SDS011;4466;50.948;4.832;2023-11-21T02:49:03;57.43;;;22.83;;
8859;SDS011;4466;50.948;4.832;2023-11-21T02:51:31;75.40;;;23.60;;
8859;SDS011;4466;50.948;4.832;2023-11-21T02:53:57;78.83;;;23.53;;
8859;SDS011;4466;50.948;4.832;2023-11-21T02:56:24;48.50;;;23.20;;
8859;SDS011;4466;50.948;4.832;2023-11-21T02:58:56;54.77;;;21.60;;
8859;SDS011;4466;50.948;4.832;2023-11-21T03:01:22;63.53;;;21.10;;
8859;SDS011;4466;50.948;4.832;2023-11-21T03:03:49;50.57;;;21.07;;
8859;SDS011;4466;50.948;4.832;2023-11-21T03:06:16;49.17;;;21.13;;
8859;SDS011;4466;50.948;4.832;2023-11-21T03:08:45;36.27;;;20.83;;
8859;SDS011;4466;50.948;4.832;2023-11-21T03:11:11;46.20;;;22.13;;
8859;SDS011;4466;50.948;4.832;2023-11-21T03:13:38;36.23;;;21.57;;
8859;SDS011;4466;50.948;4.832;2023-11-21T03:16:09;41.53;;;22.97;;
8859;SDS011;4466;50.948;4.832;2023-11-21T03:18:36;37.30;;;23.10;;
8859;SDS011;4466;50.948;4.832;2023-11-21T03:21:02;41.33;;;22.73;;
8859;SDS011;4466;50.948;4.832;2023-11-21T03:23:28;50.13;;;21.50;;
8859;SDS011;4466;50.948;4.832;2023-11-21T03:25:54;31.97;;;21.83;;
8859;SDS011;4466;50.948;4.832;2023-11-21T03:28:19;40.80;;;21.90;;
8859;SDS011;4466;50.948;4.832;2023-11-21T03:30:45;35.00;;;22.80;;
8859;SDS011;4466;50.948;4.832;2023-11-21T03:33:11;37.57;;;22.07;;
8859;SDS011;4466;50.948;4.832;2023-11-21T03:35:37;33.33;;;21.60;;
8859;SDS011;4466;50.948;4.832;2023-11-21T03:38:03;31.97;;;21.87;;
8859;SDS011;4466;50.948;4.832;2023-11-21T03:40:29;27.07;;;20.40;;
8859;SDS011;4466;50.948;4.832;2023-11-21T03:42:56;28.17;;;19.73;;
8859;SDS011;4466;50.948;4.832;2023-11-21T03:45:22;27.63;;;20.90;;
8859;SDS011;4466;50.948;4.832;2023-11-21T03:47:48;33.83;;;20.70;;
8859;SDS011;4466;50.948;4.832;2023-11-21T03:50:14;29.53;;;21.37;;
8859;SDS011;4466;50.948;4.832;2023-11-21T03:52:39;28.33;;;20.87;;
8859;SDS011;4466;50.948;4.832;2023-11-21T03:55:05;30.77;;;21.37;;
8859;SDS011;4466;50.948;4.832;2023-11-21T03:57:31;27.03;;;19.90;;
8859;SDS011;4466;50.948;4.832;2023-11-21T03:59:56;25.90;;;19.77;;
8859;SDS011;4466;50.948;4.832;2023-11-21T04:02:22;29.20;;;20.43;;
8859;SDS011;4466;50.948;4.832;2023-11-21T04:04:50;27.93;;;19.77;;
8859;SDS011;4466;50.948;4.832;2023-11-21T04:07:15;29.03;;;19.97;;
8859;SDS011;4466;50.948;4.832;2023-11-21T04:09:41;25.27;;;19.23;;
8859;SDS011;4466;50.948;4.832;2023-11-21T04:12:07;26.10;;;19.27;;
8859;SDS011;4466;50.948;4.832;2023-11-21T04:14:35;29.37;;;20.20;;
8859;SDS011;4466;50.948;4.832;2023-11-21T04:17:01;24.33;;;18.30;;
8859;SDS011;4466;50.948;4.832;2023-11-21T04:19:29;29.27;;;20.80;;
8859;SDS011;4466;50.948;4.832;2023-11-21T04:21:54;23.47;;;18.43;;
8859;SDS011;4466;50.948;4.832;2023-11-21T04:24:20;26.40;;;18.40;;
8859;SDS011;4466;50.948;4.832;2023-11-21T04:26:46;23.07;;;16.90;;
8859;SDS011;4466;50.948;4.832;2023-11-21T04:29:11;22.13;;;18.03;;
8859;SDS011;4466;50.948;4.832;2023-11-21T04:31:38;27.03;;;19.40;;
8859;SDS011;4466;50.948;4.832;2023-11-21T04:34:04;32.83;;;21.53;;
8859;SDS011;4466;50.948;4.832;2023-11-21T04:36:30;30.57;;;20.10;;
8859;SDS011;4466;50.948;4.832;2023-11-21T04:38:56;26.33;;;19.03;;
8859;SDS011;4466;50.948;4.832;2023-11-21T04:41:22;28.37;;;19.10;;
8859;SDS011;4466;50.948;4.832;2023-11-21T04:43:47;25.47;;;18.33;;
8859;SDS011;4466;50.948;4.832;2023-11-21T04:46:14;24.90;;;18.70;;
8859;SDS011;4466;50.948;4.832;2023-11-21T04:48:39;27.53;;;19.93;;
8859;SDS011;4466;50.948;4.832;2023-11-21T04:51:05;26.63;;;18.67;;
8859;SDS011;4466;50.948;4.832;2023-11-21T04:53:31;28.20;;;18.63;;
8859;SDS011;4466;50.948;4.832;2023-11-21T04:55:57;34.63;;;19.97;;
8859;SDS011;4466;50.948;4.832;2023-11-21T04:58:23;28.80;;;18.50;;
8859;SDS011;4466;50.948;4.832;2023-11-21T05:00:49;29.67;;;19.03;;
8859;SDS011;4466;50.948;4.832;2023-11-21T05:03:15;30.23;;;19.03;;
8859;SDS011;4466;50.948;4.832;2023-11-21T05:05:40;30.03;;;20.17;;
8859;SDS011;4466;50.948;4.832;2023-11-21T05:08:06;32.33;;;21.00;;
8859;SDS011;4466;50.948;4.832;2023-11-21T05:10:33;32.53;;;20.67;;
8859;SDS011;4466;50.948;4.832;2023-11-21T05:12:59;29.73;;;19.57;;
8859;SDS011;4466;50.948;4.832;2023-11-21T05:15:25;31.70;;;20.67;;
8859;SDS011;4466;50.948;4.832;2023-11-21T05:17:52;28.43;;;20.27;;
8859;SDS011;4466;50.948;4.832;2023-11-21T05:20:18;28.00;;;18.87;;
8859;SDS011;4466;50.948;4.832;2023-11-21T05:22:48;29.23;;;20.03;;
8859;SDS011;4466;50.948;4.832;2023-11-21T05:25:14;29.97;;;19.63;;
8859;SDS011;4466;50.948;4.832;2023-11-21T05:27:41;28.07;;;18.83;;
8859;SDS011;4466;50.948;4.832;2023-11-21T05:30:07;31.87;;;20.50;;
8859;SDS011;4466;50.948;4.832;2023-11-21T05:32:37;28.07;;;18.57;;
8859;SDS011;4466;50.948;4.832;2023-11-21T05:35:04;28.50;;;19.37;;
8859;SDS011;4466;50.948;4.832;2023-11-21T05:37:34;26.57;;;18.53;;
8859;SDS011;4466;50.948;4.832;2023-11-21T05:40:01;30.17;;;18.90;;
8859;SDS011;4466;50.948;4.832;2023-11-21T05:42:30;26.20;;;19.00;;
8859;SDS011;4466;50.948;4.832;2023-11-21T05:44:57;28.00;;;17.83;;
8859;SDS011;4466;50.948;4.832;2023-11-21T05:47:24;30.10;;;20.00;;
8859;SDS011;4466;50.948;4.832;2023-11-21T05:49:51;32.43;;;20.43;;
8859;SDS011;4466;50.948;4.832;2023-11-21T05:52:17;34.80;;;20.83;;
8859;SDS011;4466;50.948;4.832;2023-11-21T05:54:43;32.20;;;20.53;;
8859;SDS011;4466;50.948;4.832;2023-11-21T05:57:09;33.67;;;21.20;;
8859;SDS011;4466;50.948;4.832;2023-11-21T05:59:34;36.67;;;21.97;;
8859;SDS011;4466;50.948;4.832;2023-11-21T06:02:00;30.77;;;19.90;;
8859;SDS011;4466;50.948;4.832;2023-11-21T06:04:27;28.87;;;19.23;;
8859;SDS011;4466;50.948;4.832;2023-11-21T06:06:52;30.03;;;20.23;;
8859;SDS011;4466;50.948;4.832;2023-11-21T06:09:18;28.07;;;19.27;;
8859;SDS011;4466;50.948;4.832;2023-11-21T06:11:45;29.27;;;18.50;;
8859;SDS011;4466;50.948;4.832;2023-11-21T06:14:11;27.80;;;18.20;;
8859;SDS011;4466;50.948;4.832;2023-11-21T06:16:36;25.47;;;18.30;;
8859;SDS011;4466;50.948;4.832;2023-11-21T06:19:02;25.57;;;17.57;;
8859;SDS011;4466;50.948;4.832;2023-11-21T06:21:28;24.70;;;17.73;;
8859;SDS011;4466;50.948;4.832;2023-11-21T06:23:53;25.73;;;17.80;;
8859;SDS011;4466;50.948;4.832;2023-11-21T06:26:22;28.33;;;18.50;;
8859;SDS011;4466;50.948;4.832;2023-11-21T06:28:47;26.30;;;18.23;;
8859;SDS011;4466;50.948;4.832;2023-11-21T06:31:16;27.90;;;18.57;;
8859;SDS011;4466;50.948;4.832;2023-11-21T06:33:42;29.50;;;19.40;;
8859;SDS011;4466;50.948;4.832;2023-11-21T06:36:08;29.10;;;19.13;;
8859;SDS011;4466;50.948;4.832;2023-11-21T06:38:36;26.93;;;18.40;;
8859;SDS011;4466;50.948;4.832;2023-11-21T06:41:02;29.40;;;18.80;;
8859;SDS011;4466;50.948;4.832;2023-11-21T06:43:29;25.03;;;18.00;;
8859;SDS011;4466;50.948;4.832;2023-11-21T06:45:56;27.23;;;18.80;;
8859;SDS011;4466;50.948;4.832;2023-11-21T06:48:22;29.40;;;19.67;;
8859;SDS011;4466;50.948;4.832;2023-11-21T06:50:48;25.03;;;17.77;;
8859;SDS011;4466;50.948;4.832;2023-11-21T06:53:13;24.40;;;17.20;;
8859;SDS011;4466;50.948;4.832;2023-11-21T06:55:39;32.27;;;19.03;;
8859;SDS011;4466;50.948;4.832;2023-11-21T06:58:05;28.00;;;18.37;;
8859;SDS011;4466;50.948;4.832;2023-11-21T07:00:31;28.40;;;17.43;;
8859;SDS011;4466;50.948;4.832;2023-11-21T07:02:56;27.37;;;18.77;;
8859;SDS011;4466;50.948;4.832;2023-11-21T07:05:22;26.67;;;17.60;;
8859;SDS011;4466;50.948;4.832;2023-11-21T07:07:49;26.33;;;17.90;;
8859;SDS011;4466;50.948;4.832;2023-11-21T07:10:14;26.97;;;18.30;;
8859;SDS011;4466;50.948;4.832;2023-11-21T07:12:40;26.50;;;17.77;;
8859;SDS011;4466;50.948;4.832;2023-11-21T07:15:06;26.20;;;17.57;;
8859;SDS011;4466;50.948;4.832;2023-11-21T07:17:37;27.40;;;18.57;;
8859;SDS011;4466;50.948;4.832;2023-11-21T07:20:03;27.63;;;18.07;;
8859;SDS011;4466;50.948;4.832;2023-11-21T07:22:31;28.23;;;18.07;;
8859;SDS011;4466;50.948;4.832;2023-11-21T07:24:57;29.83;;;19.30;;
8859;SDS011;4466;50.948;4.832;2023-11-21T07:27:23;30.73;;;20.17;;
8859;SDS011;4466;50.948;4.832;2023-11-21T07:29:48;30.67;;;18.70;;
8859;SDS011;4466;50.948;4.832;2023-11-21T07:32:14;24.30;;;16.97;;
8859;SDS011;4466;50.948;4.832;2023-11-21T07:34:40;34.17;;;21.07;;
8859;SDS011;4466;50.948;4.832;2023-11-21T07:37:08;28.50;;;18.73;;
8859;SDS011;4466;50.948;4.832;2023-11-21T07:39:34;30.93;;;19.00;;
8859;SDS011;4466;50.948;4.832;2023-11-21T07:42:06;30.63;;;19.10;;
8859;SDS011;4466;50.948;4.832;2023-11-21T07:44:32;27.17;;;18.93;;
8859;SDS011;4466;50.948;4.832;2023-11-21T07:46:58;29.80;;;18.80;;
8859;SDS011;4466;50.948;4.832;2023-11-21T07:49:24;33.90;;;19.60;;
8859;SDS011;4466;50.948;4.832;2023-11-21T07:51:50;34.87;;;20.53;;
8859;SDS011;4466;50.948;4.832;2023-11-21T07:54:16;35.03;;;20.43;;
8859;SDS011;4466;50.948;4.832;2023-11-21T07:56:41;37.63;;;19.13;;
8859;SDS011;4466;50.948;4.832;2023-11-21T07:59:07;34.67;;;18.90;;
8859;SDS011;4466;50.948;4.832;2023-11-21T08:01:33;44.13;;;21.60;;
8859;SDS011;4466;50.948;4.832;2023-11-21T08:03:58;31.53;;;19.23;;
8859;SDS011;4466;50.948;4.832;2023-11-21T08:06:28;33.13;;;20.03;;
8859;SDS011;4466;50.948;4.832;2023-11-21T08:08:55;36.47;;;19.97;;
8859;SDS011;4466;50.948;4.832;2023-11-21T08:11:21;30.43;;;18.40;;
8859;SDS011;4466;50.948;4.832;2023-11-21T08:13:47;32.60;;;19.10;;
8859;SDS011;4466;50.948;4.832;2023-11-21T08:16:13;28.20;;;17.90;;
8859;SDS011;4466;50.948;4.832;2023-11-21T08:18:39;30.97;;;18.97;;
8859;SDS011;4466;50.948;4.832;2023-11-21T08:21:06;29.70;;;18.17;;
8859;SDS011;4466;50.948;4.832;2023-11-21T08:23:32;25.17;;;17.00;;
8859;SDS011;4466;50.948;4.832;2023-11-21T08:25:59;33.20;;;18.57;;
8859;SDS011;4466;50.948;4.832;2023-11-21T08:28:24;35.40;;;21.50;;
8859;SDS011;4466;50.948;4.832;2023-11-21T08:30:53;35.17;;;20.27;;
8859;SDS011;4466;50.948;4.832;2023-11-21T08:33:21;34.70;;;22.33;;
8859;SDS011;4466;50.948;4.832;2023-11-21T08:35:47;39.10;;;24.37;;
8859;SDS011;4466;50.948;4.832;2023-11-21T08:38:13;38.00;;;21.83;;
8859;SDS011;4466;50.948;4.832;2023-11-21T08:40:39;34.13;;;20.67;;
8859;SDS011;4466;50.948;4.832;2023-11-21T08:43:05;35.87;;;21.87;;
8859;SDS011;4466;50.948;4.832;2023-11-21T08:45:32;36.53;;;21.80;;
8859;SDS011;4466;50.948;4.832;2023-11-21T08:47:59;38.17;;;22.13;;
8859;SDS011;4466;50.948;4.832;2023-11-21T08:50:25;33.40;;;21.83;;
8859;SDS011;4466;50.948;4.832;2023-11-21T08:52:51;37.43;;;21.57;;
8859;SDS011;4466;50.948;4.832;2023-11-21T08:55:17;32.70;;;20.90;;
8859;SDS011;4466;50.948;4.832;2023-11-21T08:57:45;33.17;;;21.90;;
8859;SDS011;4466;50.948;4.832;2023-11-21T09:00:12;35.97;;;22.70;;
8859;SDS011;4466;50.948;4.832;2023-11-21T09:02:40;32.13;;;20.30;;
8859;SDS011;4466;50.948;4.832;2023-11-21T09:05:07;36.37;;;22.03;;
8859;SDS011;4466;50.948;4.832;2023-11-21T09:07:34;41.60;;;22.50;;
8859;SDS011;4466;50.948;4.832;2023-11-21T09:10:00;36.57;;;22.50;;
8859;SDS011;4466;50.948;4.832;2023-11-21T09:12:27;39.40;;;22.63;;
8859;SDS011;4466;50.948;4.832;2023-11-21T09:14:52;39.07;;;22.10;;
8859;SDS011;4466;50.948;4.832;2023-11-21T09:17:18;35.83;;;21.63;;
8859;SDS011;4466;50.948;4.832;2023-11-21T09:19:44;41.23;;;23.67;;
8859;SDS011;4466;50.948;4.832;2023-11-21T09:22:16;39.37;;;22.87;;
8859;SDS011;4466;50.948;4.832;2023-11-21T09:24:42;34.83;;;21.23;;
8859;SDS011;4466;50.948;4.832;2023-11-21T09:27:08;38.20;;;21.83;;
8859;SDS011;4466;50.948;4.832;2023-11-21T09:29:34;36.00;;;22.57;;
8859;SDS011;4466;50.948;4.832;2023-11-21T09:32:00;36.33;;;21.60;;
8859;SDS011;4466;50.948;4.832;2023-11-21T09:34:26;38.10;;;21.47;;
8859;SDS011;4466;50.948;4.832;2023-11-21T09:36:52;36.57;;;21.63;;
8859;SDS011;4466;50.948;4.832;2023-11-21T09:39:18;44.60;;;23.43;;
8859;SDS011;4466;50.948;4.832;2023-11-21T09:41:46;36.40;;;22.27;;
8859;SDS011;4466;50.948;4.832;2023-11-21T09:44:16;33.93;;;21.77;;
8859;SDS011;4466;50.948;4.832;2023-11-21T09:46:44;34.07;;;22.53;;
8859;SDS011;4466;50.948;4.832;2023-11-21T09:49:17;39.60;;;24.90;;
8859;SDS011;4466;50.948;4.832;2023-11-21T09:51:45;38.07;;;24.23;;
8859;SDS011;4466;50.948;4.832;2023-11-21T09:54:13;38.80;;;24.17;;
8859;SDS011;4466;50.948;4.832;2023-11-21T09:56:41;37.73;;;22.13;;
8859;SDS011;4466;50.948;4.832;2023-11-21T09:59:07;32.83;;;21.20;;
8859;SDS011;4466;50.948;4.832;2023-11-21T10:01:38;35.80;;;21.07;;
8859;SDS011;4466;50.948;4.832;2023-11-21T10:04:05;36.57;;;22.80;;
8859;SDS011;4466;50.948;4.832;2023-11-21T10:06:37;39.13;;;23.37;;
8859;SDS011;4466;50.948;4.832;2023-11-21T10:09:11;38.97;;;23.17;;
8859;SDS011;4466;50.948;4.832;2023-11-21T10:11:42;34.63;;;22.50;;
8859;SDS011;4466;50.948;4.832;2023-11-21T10:14:11;38.37;;;22.97;;
8859;SDS011;4466;50.948;4.832;2023-11-21T10:16:38;40.47;;;22.37;;
8859;SDS011;4466;50.948;4.832;2023-11-21T10:19:06;39.63;;;22.43;;
8859;SDS011;4466;50.948;4.832;2023-11-21T10:21:35;35.47;;;20.93;;
8859;SDS011;4466;50.948;4.832;2023-11-21T10:24:02;37.60;;;21.60;;
8859;SDS011;4466;50.948;4.832;2023-11-21T10:26:28;36.80;;;21.77;;
8859;SDS011;4466;50.948;4.832;2023-11-21T10:28:57;40.53;;;22.93;;
8859;SDS011;4466;50.948;4.832;2023-11-21T10:31:24;39.83;;;23.30;;
8859;SDS011;4466;50.948;4.832;2023-11-21T10:33:52;41.80;;;23.60;;
8859;SDS011;4466;50.948;4.832;2023-11-21T10:36:25;45.33;;;23.67;;
8859;SDS011;4466;50.948;4.832;2023-11-21T10:38:52;44.90;;;23.33;;
8859;SDS011;4466;50.948;4.832;2023-11-21T10:41:18;39.57;;;22.87;;
8859;SDS011;4466;50.948;4.832;2023-11-21T10:43:45;43.50;;;22.37;;
8859;SDS011;4466;50.948;4.832;2023-11-21T10:46:11;39.90;;;21.57;;
8859;SDS011;4466;50.948;4.832;2023-11-21T10:48:37;34.77;;;20.90;;
8859;SDS011;4466;50.948;4.832;2023-11-21T10:51:06;45.07;;;23.20;;
8859;SDS011;4466;50.948;4.832;2023-11-21T10:53:33;39.53;;;22.37;;
8859;SDS011;4466;50.948;4.832;2023-11-21T10:56:05;37.50;;;21.50;;
8859;SDS011;4466;50.948;4.832;2023-11-21T10:58:33;38.07;;;22.00;;
8859;SDS011;4466;50.948;4.832;2023-11-21T11:01:01;37.27;;;21.37;;
8859;SDS011;4466;50.948;4.832;2023-11-21T11:03:31;38.83;;;22.43;;
8859;SDS011;4466;50.948;4.832;2023-11-21T11:05:58;38.97;;;22.87;;
8859;SDS011;4466;50.948;4.832;2023-11-21T11:08:24;36.83;;;21.67;;
8859;SDS011;4466;50.948;4.832;2023-11-21T11:10:52;36.50;;;21.97;;
8859;SDS011;4466;50.948;4.832;2023-11-21T11:13:18;39.90;;;22.13;;
8859;SDS011;4466;50.948;4.832;2023-11-21T11:15:47;38.17;;;22.30;;
8859;SDS011;4466;50.948;4.832;2023-11-21T11:18:13;39.00;;;22.07;;
8859;SDS011;4466;50.948;4.832;2023-11-21T11:20:40;36.23;;;22.07;;
8859;SDS011;4466;50.948;4.832;2023-11-21T11:28:31;35.47;;;21.80;;
8859;SDS011;4466;50.948;4.832;2023-11-21T11:34:06;35.27;;;21.00;;
8859;SDS011;4466;50.948;4.832;2023-11-21T11:36:59;34.23;;;20.73;;
8859;SDS011;4466;50.948;4.832;2023-11-21T11:42:04;32.80;;;19.80;;
8859;SDS011;4466;50.948;4.832;2023-11-21T11:52:54;25.57;;;15.23;;
8859;SDS011;4466;50.948;4.832;2023-11-21T11:55:22;22.33;;;14.70;;
8859;SDS011;4466;50.948;4.832;2023-11-21T11:57:52;21.50;;;14.33;;
8859;SDS011;4466;50.948;4.832;2023-11-21T12:02:59;16.67;;;12.27;;
8859;SDS011;4466;50.948;4.832;2023-11-21T12:05:32;19.30;;;14.70;;
8859;SDS011;4466;50.948;4.832;2023-11-21T12:08:09;16.00;;;12.53;;
8859;SDS011;4466;50.948;4.832;2023-11-21T12:10:36;14.47;;;10.70;;
8859;SDS011;4466;50.948;4.832;2023-11-21T12:13:07;17.17;;;11.27;;
8859;SDS011;4466;50.948;4.832;2023-11-21T12:15:35;14.47;;;10.93;;
8859;SDS011;4466;50.948;4.832;2023-11-21T12:18:01;17.70;;;12.03;;
8859;SDS011;4466;50.948;4.832;2023-11-21T12:20:28;13.53;;;10.57;;
8859;SDS011;4466;50.948;4.832;2023-11-21T12:22:57;14.63;;;11.07;;
8859;SDS011;4466;50.948;4.832;2023-11-21T12:25:29;14.27;;;10.23;;
8859;SDS011;4466;50.948;4.832;2023-11-21T12:27:57;14.83;;;10.77;;
8859;SDS011;4466;50.948;4.832;2023-11-21T12:30:26;15.83;;;10.87;;
8859;SDS011;4466;50.948;4.832;2023-11-21T12:32:55;15.07;;;10.93;;
8859;SDS011;4466;50.948;4.832;2023-11-21T12:35:24;13.33;;;10.07;;
8859;SDS011;4466;50.948;4.832;2023-11-21T12:37:51;14.37;;;9.80;;
8859;SDS011;4466;50.948;4.832;2023-11-21T12:40:18;13.67;;;9.40;;
8859;SDS011;4466;50.948;4.832;2023-11-21T12:42:45;14.63;;;9.60;;
8859;SDS011;4466;50.948;4.832;2023-11-21T12:48:15;11.53;;;8.83;;
8859;SDS011;4466;50.948;4.832;2023-11-21T12:50:36;11.33;;;9.07;;
8859;SDS011;4466;50.948;4.832;2023-11-21T12:53:06;9.60;;;8.60;;
8859;SDS011;4466;50.948;4.832;2023-11-21T12:55:35;10.53;;;8.83;;
8859;SDS011;4466;50.948;4.832;2023-11-21T12:58:04;10.97;;;8.20;;
8859;SDS011;4466;50.948;4.832;2023-11-21T13:00:38;12.38;;;8.63;;
8859;SDS011;4466;50.948;4.832;2023-11-21T13:03:08;10.37;;;7.37;;
8859;SDS011;4466;50.948;4.832;2023-11-21T13:05:38;14.00;;;8.05;;
8859;SDS011;4466;50.948;4.832;2023-11-21T13:08:07;10.67;;;7.80;;
8859;SDS011;4466;50.948;4.832;2023-11-21T13:10:35;9.63;;;8.27;;
8859;SDS011;4466;50.948;4.832;2023-11-21T13:13:05;10.47;;;7.53;;
8859;SDS011;4466;50.948;4.832;2023-11-21T13:15:38;12.63;;;7.75;;
8859;SDS011;4466;50.948;4.832;2023-11-21T13:18:06;9.97;;;8.00;;
8859;SDS011;4466;50.948;4.832;2023-11-21T13:20:32;15.15;;;9.20;;
8859;SDS011;4466;50.948;4.832;2023-11-21T13:22:59;10.67;;;9.17;;
8859;SDS011;4466;50.948;4.832;2023-11-21T13:25:26;10.80;;;8.90;;
8859;SDS011;4466;50.948;4.832;2023-11-21T13:27:55;9.70;;;8.43;;
8859;SDS011;4466;50.948;4.832;2023-11-21T13:30:25;9.60;;;7.40;;
8859;SDS011;4466;50.948;4.832;2023-11-21T13:32:52;9.97;;;7.37;;
8859;SDS011;4466;50.948;4.832;2023-11-21T13:35:26;12.57;;;8.33;;
8859;SDS011;4466;50.948;4.832;2023-11-21T13:38:03;8.03;;;6.60;;
8859;SDS011;4466;50.948;4.832;2023-11-21T13:40:31;9.33;;;6.00;;
8859;SDS011;4466;50.948;4.832;2023-11-21T13:42:59;10.30;;;6.75;;
8859;SDS011;4466;50.948;4.832;2023-11-21T13:45:29;6.17;;;5.00;;
8859;SDS011;4466;50.948;4.832;2023-11-21T13:47:55;7.07;;;5.10;;
8859;SDS011;4466;50.948;4.832;2023-11-21T13:50:27;5.80;;;5.20;;
8859;SDS011;4466;50.948;4.832;2023-11-21T13:53:00;6.70;;;5.47;;
8859;SDS011;4466;50.948;4.832;2023-11-21T13:55:46;7.37;;;5.23;;
8859;SDS011;4466;50.948;4.832;2023-11-21T13:58:14;7.47;;;5.30;;
8859;SDS011;4466;50.948;4.832;2023-11-21T14:00:48;6.60;;;4.80;;
8859;SDS011;4466;50.948;4.832;2023-11-21T14:03:21;6.43;;;5.63;;
8859;SDS011;4466;50.948;4.832;2023-11-21T14:06:02;7.23;;;5.10;;
8859;SDS011;4466;50.948;4.832;2023-11-21T14:08:33;6.50;;;5.30;;
8859;SDS011;4466;50.948;4.832;2023-11-21T14:10:59;7.07;;;5.87;;
8859;SDS011;4466;50.948;4.832;2023-11-21T14:13:28;7.77;;;6.10;;
8859;SDS011;4466;50.948;4.832;2023-11-21T14:15:54;6.90;;;6.20;;
8859;SDS011;4466;50.948;4.832;2023-11-21T14:18:24;8.10;;;6.63;;
8859;SDS011;4466;50.948;4.832;2023-11-21T14:21:01;9.00;;;6.33;;
8859;SDS011;4466;50.948;4.832;2023-11-21T14:23:26;8.53;;;6.23;;
8859;SDS011;4466;50.948;4.832;2023-11-21T14:25:53;6.70;;;6.00;;
8859;SDS011;4466;50.948;4.832;2023-11-21T14:28:19;8.53;;;6.47;;
8859;SDS011;4466;50.948;4.832;2023-11-21T14:30:45;8.67;;;5.83;;
8859;SDS011;4466;50.948;4.832;2023-11-21T14:33:12;8.88;;;6.43;;
8859;SDS011;4466;50.948;4.832;2023-11-21T14:35:37;6.77;;;6.17;;
8859;SDS011;4466;50.948;4.832;2023-11-21T14:38:03;7.37;;;5.73;;
8859;SDS011;4466;50.948;4.832;2023-11-21T14:40:33;6.32;;;5.03;;
8859;SDS011;4466;50.948;4.832;2023-11-21T14:43:00;7.03;;;5.18;;
8859;SDS011;4466;50.948;4.832;2023-11-21T14:45:30;6.38;;;5.03;;
8859;SDS011;4466;50.948;4.832;2023-11-21T14:47:56;6.83;;;4.80;;
8859;SDS011;4466;50.948;4.832;2023-11-21T14:50:31;7.93;;;4.87;;
8859;SDS011;4466;50.948;4.832;2023-11-21T14:53:13;5.37;;;4.60;;
8859;SDS011;4466;50.948;4.832;2023-11-21T14:55:39;5.23;;;4.70;;
8859;SDS011;4466;50.948;4.832;2023-11-21T14:58:14;6.03;;;4.93;;
8859;SDS011;4466;50.948;4.832;2023-11-21T15:00:46;5.90;;;5.30;;
8859;SDS011;4466;50.948;4.832;2023-11-21T15:03:12;5.97;;;5.23;;
8859;SDS011;4466;50.948;4.832;2023-11-21T15:06:08;6.50;;;5.00;;
8859;SDS011;4466;50.948;4.832;2023-11-21T15:08:48;6.80;;;5.40;;
8859;SDS011;4466;50.948;4.832;2023-11-21T15:11:21;6.73;;;5.60;;
8859;SDS011;4466;50.948;4.832;2023-11-21T15:13:54;6.73;;;5.80;;
8859;SDS011;4466;50.948;4.832;2023-11-21T15:16:20;8.33;;;5.87;;